sensor_id;sensor_type;location;lat;lon;timestamp;P1;durP1;ratioP1;P2;durP2;ratioP2
21501;SDS011;27639;48.674;9.242;2023-11-21T00:02:02;9.13;;;2.00;;
21501;SDS011;27639;48.674;9.242;2023-11-21T00:04:29;7.63;;;1.50;;
21501;SDS011;27639;48.674;9.242;2023-11-21T00:06:55;4.93;;;1.65;;
21501;SDS011;27639;48.674;9.242;2023-11-21T00:09:20;5.07;;;1.50;;
21501;SDS011;27639;48.674;9.242;2023-11-21T00:11:46;4.50;;;1.55;;
21501;SDS011;27639;48.674;9.242;2023-11-21T00:14:12;4.90;;;1.63;;
21501;SDS011;27639;48.674;9.242;2023-11-21T00:16:40;4.90;;;1.70;;
21501;SDS011;27639;48.674;9.242;2023-11-21T00:19:06;4.47;;;1.60;;
21501;SDS011;27639;48.674;9.242;2023-11-21T00:21:31;4.70;;;1.60;;
21501;SDS011;27639;48.674;9.242;2023-11-21T00:23:57;5.55;;;1.70;;
21501;SDS011;27639;48.674;9.242;2023-11-21T00:26:22;4.85;;;1.75;;
21501;SDS011;27639;48.674;9.242;2023-11-21T00:28:49;4.85;;;1.45;;
21501;SDS011;27639;48.674;9.242;2023-11-21T00:31:15;4.32;;;1.52;;
21501;SDS011;27639;48.674;9.242;2023-11-21T00:33:41;4.60;;;1.27;;
21501;SDS011;27639;48.674;9.242;2023-11-21T00:36:07;4.30;;;1.45;;
21501;SDS011;27639;48.674;9.242;2023-11-21T00:38:35;5.00;;;1.30;;
21501;SDS011;27639;48.674;9.242;2023-11-21T00:41:01;3.38;;;1.30;;
21501;SDS011;27639;48.674;9.242;2023-11-21T00:43:27;3.67;;;1.30;;
21501;SDS011;27639;48.674;9.242;2023-11-21T00:45:53;3.35;;;1.20;;
21501;SDS011;27639;48.674;9.242;2023-11-21T00:48:19;5.10;;;1.48;;
21501;SDS011;27639;48.674;9.242;2023-11-21T00:50:44;5.47;;;1.45;;
21501;SDS011;27639;48.674;9.242;2023-11-21T00:53:10;5.43;;;1.40;;
21501;SDS011;27639;48.674;9.242;2023-11-21T00:55:36;4.38;;;1.45;;
21501;SDS011;27639;48.674;9.242;2023-11-21T00:58:05;3.50;;;1.20;;
21501;SDS011;27639;48.674;9.242;2023-11-21T01:00:31;3.92;;;1.42;;
21501;SDS011;27639;48.674;9.242;2023-11-21T01:02:58;3.20;;;1.10;;
21501;SDS011;27639;48.674;9.242;2023-11-21T01:05:23;4.57;;;1.30;;
21501;SDS011;27639;48.674;9.242;2023-11-21T01:07:49;4.28;;;1.20;;
21501;SDS011;27639;48.674;9.242;2023-11-21T01:10:15;6.80;;;1.48;;
21501;SDS011;27639;48.674;9.242;2023-11-21T01:12:42;3.83;;;1.15;;
21501;SDS011;27639;48.674;9.242;2023-11-21T01:15:08;5.03;;;1.48;;
21501;SDS011;27639;48.674;9.242;2023-11-21T01:17:34;4.78;;;1.20;;
21501;SDS011;27639;48.674;9.242;2023-11-21T01:20:00;5.38;;;1.00;;
21501;SDS011;27639;48.674;9.242;2023-11-21T01:22:26;5.53;;;0.95;;
21501;SDS011;27639;48.674;9.242;2023-11-21T01:24:53;7.05;;;2.17;;
21501;SDS011;27639;48.674;9.242;2023-11-21T01:27:19;5.80;;;1.15;;
21501;SDS011;27639;48.674;9.242;2023-11-21T01:29:44;3.00;;;1.00;;
21501;SDS011;27639;48.674;9.242;2023-11-21T01:32:10;3.95;;;1.08;;
21501;SDS011;27639;48.674;9.242;2023-11-21T01:34:36;3.15;;;1.00;;
21501;SDS011;27639;48.674;9.242;2023-11-21T01:37:01;2.40;;;0.90;;
21501;SDS011;27639;48.674;9.242;2023-11-21T01:39:29;4.30;;;1.40;;
21501;SDS011;27639;48.674;9.242;2023-11-21T01:41:56;3.25;;;0.90;;
21501;SDS011;27639;48.674;9.242;2023-11-21T01:44:23;2.17;;;0.77;;
21501;SDS011;27639;48.674;9.242;2023-11-21T01:46:49;4.13;;;1.05;;
21501;SDS011;27639;48.674;9.242;2023-11-21T01:49:16;4.68;;;1.23;;
21501;SDS011;27639;48.674;9.242;2023-11-21T01:51:43;2.47;;;0.88;;
21501;SDS011;27639;48.674;9.242;2023-11-21T01:54:11;3.88;;;1.00;;
21501;SDS011;27639;48.674;9.242;2023-11-21T01:56:37;4.05;;;0.80;;
21501;SDS011;27639;48.674;9.242;2023-11-21T01:59:03;3.22;;;0.90;;
21501;SDS011;27639;48.674;9.242;2023-11-21T02:01:28;3.58;;;0.80;;
21501;SDS011;27639;48.674;9.242;2023-11-21T02:03:54;3.60;;;0.80;;
21501;SDS011;27639;48.674;9.242;2023-11-21T02:06:20;1.77;;;0.60;;
21501;SDS011;27639;48.674;9.242;2023-11-21T02:08:47;2.15;;;0.95;;
21501;SDS011;27639;48.674;9.242;2023-11-21T02:11:12;5.45;;;0.90;;
21501;SDS011;27639;48.674;9.242;2023-11-21T02:13:38;3.15;;;1.00;;
21501;SDS011;27639;48.674;9.242;2023-11-21T02:16:08;2.20;;;0.80;;
21501;SDS011;27639;48.674;9.242;2023-11-21T02:18:37;3.63;;;1.17;;
21501;SDS011;27639;48.674;9.242;2023-11-21T02:21:04;2.90;;;0.75;;
21501;SDS011;27639;48.674;9.242;2023-11-21T02:23:30;3.90;;;0.90;;
21501;SDS011;27639;48.674;9.242;2023-11-21T02:25:56;2.60;;;0.70;;
21501;SDS011;27639;48.674;9.242;2023-11-21T02:28:21;3.65;;;1.00;;
21501;SDS011;27639;48.674;9.242;2023-11-21T02:30:51;2.33;;;0.98;;
21501;SDS011;27639;48.674;9.242;2023-11-21T02:33:21;2.75;;;0.88;;
21501;SDS011;27639;48.674;9.242;2023-11-21T02:35:46;3.70;;;0.90;;
21501;SDS011;27639;48.674;9.242;2023-11-21T02:38:12;3.08;;;0.65;;
21501;SDS011;27639;48.674;9.242;2023-11-21T02:40:38;3.50;;;1.02;;
21501;SDS011;27639;48.674;9.242;2023-11-21T02:43:04;2.47;;;0.75;;
21501;SDS011;27639;48.674;9.242;2023-11-21T02:45:30;2.90;;;0.98;;
21501;SDS011;27639;48.674;9.242;2023-11-21T02:47:57;2.40;;;0.90;;
21501;SDS011;27639;48.674;9.242;2023-11-21T02:50:23;2.35;;;0.90;;
21501;SDS011;27639;48.674;9.242;2023-11-21T02:52:49;3.63;;;0.90;;
21501;SDS011;27639;48.674;9.242;2023-11-21T02:55:15;3.17;;;0.88;;
21501;SDS011;27639;48.674;9.242;2023-11-21T02:57:40;2.35;;;0.80;;
21501;SDS011;27639;48.674;9.242;2023-11-21T03:00:06;2.42;;;0.80;;
21501;SDS011;27639;48.674;9.242;2023-11-21T03:02:32;2.75;;;0.80;;
21501;SDS011;27639;48.674;9.242;2023-11-21T03:05:04;2.10;;;0.70;;
21501;SDS011;27639;48.674;9.242;2023-11-21T03:07:31;2.35;;;0.70;;
21501;SDS011;27639;48.674;9.242;2023-11-21T03:09:56;2.63;;;0.70;;
21501;SDS011;27639;48.674;9.242;2023-11-21T03:12:22;2.00;;;0.70;;
21501;SDS011;27639;48.674;9.242;2023-11-21T03:14:48;3.15;;;0.60;;
21501;SDS011;27639;48.674;9.242;2023-11-21T03:17:13;2.08;;;0.65;;
21501;SDS011;27639;48.674;9.242;2023-11-21T03:19:41;1.80;;;0.60;;
21501;SDS011;27639;48.674;9.242;2023-11-21T03:22:06;2.80;;;0.70;;
21501;SDS011;27639;48.674;9.242;2023-11-21T03:24:33;1.60;;;0.60;;
21501;SDS011;27639;48.674;9.242;2023-11-21T03:26:59;2.20;;;0.73;;
21501;SDS011;27639;48.674;9.242;2023-11-21T03:29:25;3.33;;;0.50;;
21501;SDS011;27639;48.674;9.242;2023-11-21T03:31:50;1.83;;;0.63;;
21501;SDS011;27639;48.674;9.242;2023-11-21T03:34:26;4.78;;;1.05;;
21501;SDS011;27639;48.674;9.242;2023-11-21T03:36:52;3.28;;;0.70;;
21501;SDS011;27639;48.674;9.242;2023-11-21T03:39:21;1.92;;;0.63;;
21501;SDS011;27639;48.674;9.242;2023-11-21T03:41:47;1.95;;;0.80;;
21501;SDS011;27639;48.674;9.242;2023-11-21T03:44:13;2.67;;;0.60;;
21501;SDS011;27639;48.674;9.242;2023-11-21T03:46:39;2.50;;;0.75;;
21501;SDS011;27639;48.674;9.242;2023-11-21T03:49:05;2.42;;;0.60;;
21501;SDS011;27639;48.674;9.242;2023-11-21T03:51:30;2.22;;;0.50;;
21501;SDS011;27639;48.674;9.242;2023-11-21T03:53:56;2.67;;;0.70;;
21501;SDS011;27639;48.674;9.242;2023-11-21T03:56:21;1.58;;;0.50;;
21501;SDS011;27639;48.674;9.242;2023-11-21T03:58:47;3.10;;;0.73;;
21501;SDS011;27639;48.674;9.242;2023-11-21T04:01:23;1.77;;;0.60;;
21501;SDS011;27639;48.674;9.242;2023-11-21T04:03:50;1.92;;;0.60;;
21501;SDS011;27639;48.674;9.242;2023-11-21T04:06:16;1.80;;;0.50;;
21501;SDS011;27639;48.674;9.242;2023-11-21T04:08:42;2.33;;;0.70;;
21501;SDS011;27639;48.674;9.242;2023-11-21T04:11:09;2.53;;;0.65;;
21501;SDS011;27639;48.674;9.242;2023-11-21T04:13:36;3.53;;;0.70;;
21501;SDS011;27639;48.674;9.242;2023-11-21T04:16:03;2.67;;;0.50;;
21501;SDS011;27639;48.674;9.242;2023-11-21T04:18:30;1.25;;;0.40;;
21501;SDS011;27639;48.674;9.242;2023-11-21T04:20:55;1.60;;;0.50;;
21501;SDS011;27639;48.674;9.242;2023-11-21T04:23:21;2.15;;;0.60;;
21501;SDS011;27639;48.674;9.242;2023-11-21T04:25:46;3.00;;;0.70;;
21501;SDS011;27639;48.674;9.242;2023-11-21T04:28:12;1.65;;;0.52;;
21501;SDS011;27639;48.674;9.242;2023-11-21T04:30:38;1.50;;;0.60;;
21501;SDS011;27639;48.674;9.242;2023-11-21T04:33:04;2.17;;;0.55;;
21501;SDS011;27639;48.674;9.242;2023-11-21T04:35:30;1.67;;;0.52;;
21501;SDS011;27639;48.674;9.242;2023-11-21T04:37:55;1.23;;;0.50;;
21501;SDS011;27639;48.674;9.242;2023-11-21T04:40:22;2.22;;;0.70;;
21501;SDS011;27639;48.674;9.242;2023-11-21T04:42:48;1.70;;;0.60;;
21501;SDS011;27639;48.674;9.242;2023-11-21T04:45:13;1.75;;;0.63;;
21501;SDS011;27639;48.674;9.242;2023-11-21T04:47:39;3.15;;;0.70;;
21501;SDS011;27639;48.674;9.242;2023-11-21T04:50:05;2.08;;;0.68;;
21501;SDS011;27639;48.674;9.242;2023-11-21T04:52:31;1.38;;;0.45;;
21501;SDS011;27639;48.674;9.242;2023-11-21T04:54:58;1.27;;;0.50;;
21501;SDS011;27639;48.674;9.242;2023-11-21T04:57:26;1.30;;;0.52;;
21501;SDS011;27639;48.674;9.242;2023-11-21T04:59:53;2.33;;;0.50;;
21501;SDS011;27639;48.674;9.242;2023-11-21T05:02:19;2.13;;;0.60;;
21501;SDS011;27639;48.674;9.242;2023-11-21T05:04:46;2.25;;;0.55;;
21501;SDS011;27639;48.674;9.242;2023-11-21T05:07:11;3.95;;;0.60;;
21501;SDS011;27639;48.674;9.242;2023-11-21T05:09:40;1.50;;;0.60;;
21501;SDS011;27639;48.674;9.242;2023-11-21T05:12:09;2.13;;;0.47;;
21501;SDS011;27639;48.674;9.242;2023-11-21T05:14:35;1.70;;;0.50;;
21501;SDS011;27639;48.674;9.242;2023-11-21T05:17:01;1.55;;;0.50;;
21501;SDS011;27639;48.674;9.242;2023-11-21T05:19:26;2.70;;;0.60;;
21501;SDS011;27639;48.674;9.242;2023-11-21T05:21:52;2.13;;;0.60;;
21501;SDS011;27639;48.674;9.242;2023-11-21T05:24:17;2.70;;;0.65;;
21501;SDS011;27639;48.674;9.242;2023-11-21T05:26:43;2.13;;;0.75;;
21501;SDS011;27639;48.674;9.242;2023-11-21T05:29:09;1.45;;;0.60;;
21501;SDS011;27639;48.674;9.242;2023-11-21T05:31:35;3.13;;;0.75;;
21501;SDS011;27639;48.674;9.242;2023-11-21T05:34:01;2.33;;;0.80;;
21501;SDS011;27639;48.674;9.242;2023-11-21T05:36:28;2.53;;;0.98;;
21501;SDS011;27639;48.674;9.242;2023-11-21T05:38:53;2.83;;;1.00;;
21501;SDS011;27639;48.674;9.242;2023-11-21T05:41:19;2.13;;;0.90;;
21501;SDS011;27639;48.674;9.242;2023-11-21T05:43:45;2.63;;;0.80;;
21501;SDS011;27639;48.674;9.242;2023-11-21T05:46:10;2.42;;;0.60;;
21501;SDS011;27639;48.674;9.242;2023-11-21T05:48:36;1.75;;;0.55;;
21501;SDS011;27639;48.674;9.242;2023-11-21T05:51:04;2.17;;;0.70;;
21501;SDS011;27639;48.674;9.242;2023-11-21T05:53:31;2.72;;;0.73;;
21501;SDS011;27639;48.674;9.242;2023-11-21T05:55:56;2.10;;;0.95;;
21501;SDS011;27639;48.674;9.242;2023-11-21T05:58:22;3.03;;;0.98;;
21501;SDS011;27639;48.674;9.242;2023-11-21T06:00:48;3.97;;;0.90;;
21501;SDS011;27639;48.674;9.242;2023-11-21T06:03:14;3.47;;;1.00;;
21501;SDS011;27639;48.674;9.242;2023-11-21T06:05:40;2.58;;;1.10;;
21501;SDS011;27639;48.674;9.242;2023-11-21T06:08:05;2.67;;;1.13;;
21501;SDS011;27639;48.674;9.242;2023-11-21T06:10:32;2.42;;;0.82;;
21501;SDS011;27639;48.674;9.242;2023-11-21T06:12:57;2.75;;;1.20;;
21501;SDS011;27639;48.674;9.242;2023-11-21T06:15:23;2.08;;;0.98;;
21501;SDS011;27639;48.674;9.242;2023-11-21T06:17:49;3.47;;;1.10;;
21501;SDS011;27639;48.674;9.242;2023-11-21T06:20:17;4.72;;;1.10;;
21501;SDS011;27639;48.674;9.242;2023-11-21T06:22:44;2.85;;;0.80;;
21501;SDS011;27639;48.674;9.242;2023-11-21T06:25:11;2.63;;;1.10;;
21501;SDS011;27639;48.674;9.242;2023-11-21T06:27:42;3.65;;;1.00;;
21501;SDS011;27639;48.674;9.242;2023-11-21T06:30:12;3.28;;;0.80;;
21501;SDS011;27639;48.674;9.242;2023-11-21T06:32:40;3.35;;;1.00;;
21501;SDS011;27639;48.674;9.242;2023-11-21T06:35:07;3.67;;;1.10;;
21501;SDS011;27639;48.674;9.242;2023-11-21T06:37:34;5.20;;;1.50;;
21501;SDS011;27639;48.674;9.242;2023-11-21T06:40:01;3.30;;;1.30;;
21501;SDS011;27639;48.674;9.242;2023-11-21T06:42:28;3.65;;;1.30;;
21501;SDS011;27639;48.674;9.242;2023-11-21T06:44:54;2.15;;;1.05;;
21501;SDS011;27639;48.674;9.242;2023-11-21T06:47:22;2.95;;;1.27;;
21501;SDS011;27639;48.674;9.242;2023-11-21T06:49:52;2.67;;;0.95;;
21501;SDS011;27639;48.674;9.242;2023-11-21T06:52:18;3.22;;;0.70;;
21501;SDS011;27639;48.674;9.242;2023-11-21T06:54:44;5.43;;;1.23;;
21501;SDS011;27639;48.674;9.242;2023-11-21T06:57:12;1.85;;;0.70;;
21501;SDS011;27639;48.674;9.242;2023-11-21T06:59:38;3.05;;;0.90;;
21501;SDS011;27639;48.674;9.242;2023-11-21T07:02:04;3.90;;;1.58;;
21501;SDS011;27639;48.674;9.242;2023-11-21T07:04:33;3.42;;;1.30;;
21501;SDS011;27639;48.674;9.242;2023-11-21T07:06:59;3.00;;;1.25;;
21501;SDS011;27639;48.674;9.242;2023-11-21T07:09:24;4.07;;;1.10;;
21501;SDS011;27639;48.674;9.242;2023-11-21T07:11:51;2.75;;;1.08;;
21501;SDS011;27639;48.674;9.242;2023-11-21T07:14:17;3.63;;;1.10;;
21501;SDS011;27639;48.674;9.242;2023-11-21T07:16:44;2.80;;;1.00;;
21501;SDS011;27639;48.674;9.242;2023-11-21T07:19:10;3.03;;;1.08;;
21501;SDS011;27639;48.674;9.242;2023-11-21T07:21:37;3.35;;;0.95;;
21501;SDS011;27639;48.674;9.242;2023-11-21T07:24:03;2.97;;;0.98;;
21501;SDS011;27639;48.674;9.242;2023-11-21T07:26:29;3.22;;;0.93;;
21501;SDS011;27639;48.674;9.242;2023-11-21T07:28:55;2.85;;;0.80;;
21501;SDS011;27639;48.674;9.242;2023-11-21T07:31:21;4.13;;;0.90;;
21501;SDS011;27639;48.674;9.242;2023-11-21T07:33:48;2.70;;;0.93;;
21501;SDS011;27639;48.674;9.242;2023-11-21T07:36:14;2.88;;;1.10;;
21501;SDS011;27639;48.674;9.242;2023-11-21T07:38:40;2.22;;;0.70;;
21501;SDS011;27639;48.674;9.242;2023-11-21T07:41:07;3.95;;;0.88;;
21501;SDS011;27639;48.674;9.242;2023-11-21T07:43:34;4.05;;;0.80;;
21501;SDS011;27639;48.674;9.242;2023-11-21T07:46:03;3.42;;;1.00;;
21501;SDS011;27639;48.674;9.242;2023-11-21T07:48:29;3.55;;;1.10;;
21501;SDS011;27639;48.674;9.242;2023-11-21T07:50:58;4.03;;;0.98;;
21501;SDS011;27639;48.674;9.242;2023-11-21T07:53:25;3.67;;;0.80;;
21501;SDS011;27639;48.674;9.242;2023-11-21T07:55:51;2.90;;;1.02;;
21501;SDS011;27639;48.674;9.242;2023-11-21T07:58:17;3.03;;;1.08;;
21501;SDS011;27639;48.674;9.242;2023-11-21T08:00:43;2.42;;;0.80;;
21501;SDS011;27639;48.674;9.242;2023-11-21T08:03:09;2.78;;;0.88;;
21501;SDS011;27639;48.674;9.242;2023-11-21T08:05:36;1.90;;;0.70;;
21501;SDS011;27639;48.674;9.242;2023-11-21T08:08:02;2.15;;;0.68;;
21501;SDS011;27639;48.674;9.242;2023-11-21T08:10:27;1.92;;;0.70;;
21501;SDS011;27639;48.674;9.242;2023-11-21T08:12:53;2.72;;;0.90;;
21501;SDS011;27639;48.674;9.242;2023-11-21T08:15:18;3.45;;;0.90;;
21501;SDS011;27639;48.674;9.242;2023-11-21T08:17:44;4.57;;;1.08;;
21501;SDS011;27639;48.674;9.242;2023-11-21T08:20:11;2.00;;;0.82;;
21501;SDS011;27639;48.674;9.242;2023-11-21T08:22:37;2.22;;;0.90;;
21501;SDS011;27639;48.674;9.242;2023-11-21T08:25:05;3.58;;;0.98;;
21501;SDS011;27639;48.674;9.242;2023-11-21T08:27:32;2.67;;;0.90;;
21501;SDS011;27639;48.674;9.242;2023-11-21T08:29:59;3.85;;;0.98;;
21501;SDS011;27639;48.674;9.242;2023-11-21T08:32:28;4.80;;;1.08;;
21501;SDS011;27639;48.674;9.242;2023-11-21T08:34:58;2.53;;;1.08;;
21501;SDS011;27639;48.674;9.242;2023-11-21T08:37:24;2.53;;;1.02;;
21501;SDS011;27639;48.674;9.242;2023-11-21T08:39:52;2.67;;;1.10;;
21501;SDS011;27639;48.674;9.242;2023-11-21T08:42:18;3.47;;;0.90;;
21501;SDS011;27639;48.674;9.242;2023-11-21T08:44:44;3.92;;;1.15;;
21501;SDS011;27639;48.674;9.242;2023-11-21T08:47:09;5.30;;;1.20;;
21501;SDS011;27639;48.674;9.242;2023-11-21T08:49:35;2.47;;;0.98;;
21501;SDS011;27639;48.674;9.242;2023-11-21T08:52:00;2.15;;;0.95;;
21501;SDS011;27639;48.674;9.242;2023-11-21T08:54:26;2.50;;;0.80;;
21501;SDS011;27639;48.674;9.242;2023-11-21T08:56:54;1.67;;;0.70;;
21501;SDS011;27639;48.674;9.242;2023-11-21T08:59:20;3.20;;;0.90;;
21501;SDS011;27639;48.674;9.242;2023-11-21T09:01:46;3.38;;;1.20;;
21501;SDS011;27639;48.674;9.242;2023-11-21T09:04:12;2.22;;;0.90;;
21501;SDS011;27639;48.674;9.242;2023-11-21T09:06:38;2.53;;;0.85;;
21501;SDS011;27639;48.674;9.242;2023-11-21T09:09:05;2.92;;;1.00;;
21501;SDS011;27639;48.674;9.242;2023-11-21T09:11:31;3.25;;;1.00;;
21501;SDS011;27639;48.674;9.242;2023-11-21T09:13:59;3.10;;;0.85;;
21501;SDS011;27639;48.674;9.242;2023-11-21T09:16:25;3.60;;;1.33;;
21501;SDS011;27639;48.674;9.242;2023-11-21T09:18:51;2.67;;;1.10;;
21501;SDS011;27639;48.674;9.242;2023-11-21T09:21:16;2.97;;;1.08;;
21501;SDS011;27639;48.674;9.242;2023-11-21T09:23:45;4.20;;;1.63;;
21501;SDS011;27639;48.674;9.242;2023-11-21T09:26:11;12.30;;;3.63;;
21501;SDS011;27639;48.674;9.242;2023-11-21T09:28:37;5.05;;;1.60;;
21501;SDS011;27639;48.674;9.242;2023-11-21T09:31:03;4.07;;;1.10;;
21501;SDS011;27639;48.674;9.242;2023-11-21T09:33:29;2.45;;;0.82;;
21501;SDS011;27639;48.674;9.242;2023-11-21T09:35:56;2.22;;;0.75;;
21501;SDS011;27639;48.674;9.242;2023-11-21T09:38:22;1.67;;;0.70;;
21501;SDS011;27639;48.674;9.242;2023-11-21T09:40:48;3.38;;;0.90;;
21501;SDS011;27639;48.674;9.242;2023-11-21T09:43:17;5.53;;;1.65;;
21501;SDS011;27639;48.674;9.242;2023-11-21T09:45:47;3.67;;;1.38;;
21501;SDS011;27639;48.674;9.242;2023-11-21T09:48:18;2.95;;;1.10;;
21501;SDS011;27639;48.674;9.242;2023-11-21T09:50:45;5.85;;;1.70;;
21501;SDS011;27639;48.674;9.242;2023-11-21T09:55:49;7.90;;;2.87;;
21501;SDS011;27639;48.674;9.242;2023-11-21T09:58:17;4.07;;;1.30;;
21501;SDS011;27639;48.674;9.242;2023-11-21T10:00:44;6.55;;;2.28;;
21501;SDS011;27639;48.674;9.242;2023-11-21T10:03:13;3.28;;;1.00;;
21501;SDS011;27639;48.674;9.242;2023-11-21T10:05:40;2.35;;;0.90;;
21501;SDS011;27639;48.674;9.242;2023-11-21T10:08:08;2.03;;;0.60;;
21501;SDS011;27639;48.674;9.242;2023-11-21T10:10:35;3.42;;;0.95;;
21501;SDS011;27639;48.674;9.242;2023-11-21T10:13:09;9.52;;;2.78;;
21501;SDS011;27639;48.674;9.242;2023-11-21T10:15:37;3.17;;;0.95;;
21501;SDS011;27639;48.674;9.242;2023-11-21T10:18:03;2.05;;;0.65;;
21501;SDS011;27639;48.674;9.242;2023-11-21T10:20:31;1.67;;;0.60;;
21501;SDS011;27639;48.674;9.242;2023-11-21T10:22:59;4.65;;;0.98;;
21501;SDS011;27639;48.674;9.242;2023-11-21T10:25:27;4.07;;;1.55;;
21501;SDS011;27639;48.674;9.242;2023-11-21T10:27:57;3.72;;;1.45;;
21501;SDS011;27639;48.674;9.242;2023-11-21T10:30:32;3.03;;;1.17;;
21501;SDS011;27639;48.674;9.242;2023-11-21T10:32:59;5.35;;;1.27;;
21501;SDS011;27639;48.674;9.242;2023-11-21T10:35:38;2.70;;;1.10;;
21501;SDS011;27639;48.674;9.242;2023-11-21T10:38:06;3.13;;;1.02;;
21501;SDS011;27639;48.674;9.242;2023-11-21T10:40:35;4.55;;;1.60;;
21501;SDS011;27639;48.674;9.242;2023-11-21T10:43:07;6.10;;;2.58;;
21501;SDS011;27639;48.674;9.242;2023-11-21T10:45:42;3.95;;;1.15;;
21501;SDS011;27639;48.674;9.242;2023-11-21T10:48:15;3.92;;;0.95;;
21501;SDS011;27639;48.674;9.242;2023-11-21T10:50:41;2.45;;;0.80;;
21501;SDS011;27639;48.674;9.242;2023-11-21T10:53:06;1.95;;;0.77;;
21501;SDS011;27639;48.674;9.242;2023-11-21T10:55:33;1.98;;;0.80;;
21501;SDS011;27639;48.674;9.242;2023-11-21T10:58:00;1.85;;;0.70;;
21501;SDS011;27639;48.674;9.242;2023-11-21T11:00:30;2.47;;;0.70;;
21501;SDS011;27639;48.674;9.242;2023-11-21T11:02:57;1.70;;;0.60;;
21501;SDS011;27639;48.674;9.242;2023-11-21T11:05:24;3.30;;;0.90;;
21501;SDS011;27639;48.674;9.242;2023-11-21T11:07:52;2.17;;;0.65;;
21501;SDS011;27639;48.674;9.242;2023-11-21T11:10:29;3.40;;;0.80;;
21501;SDS011;27639;48.674;9.242;2023-11-21T11:12:55;2.50;;;0.70;;
21501;SDS011;27639;48.674;9.242;2023-11-21T11:15:27;2.50;;;0.80;;
21501;SDS011;27639;48.674;9.242;2023-11-21T11:17:53;3.20;;;1.02;;
21501;SDS011;27639;48.674;9.242;2023-11-21T11:20:22;2.17;;;0.80;;
21501;SDS011;27639;48.674;9.242;2023-11-21T11:25:53;2.00;;;0.68;;
21501;SDS011;27639;48.674;9.242;2023-11-21T11:31:26;3.00;;;1.10;;
21501;SDS011;27639;48.674;9.242;2023-11-21T11:34:19;2.90;;;1.30;;
21501;SDS011;27639;48.674;9.242;2023-11-21T11:37:09;2.97;;;0.90;;
21501;SDS011;27639;48.674;9.242;2023-11-21T11:39:35;2.70;;;0.80;;
21501;SDS011;27639;48.674;9.242;2023-11-21T11:42:03;3.45;;;0.90;;
21501;SDS011;27639;48.674;9.242;2023-11-21T11:47:14;2.17;;;0.70;;
21501;SDS011;27639;48.674;9.242;2023-11-21T11:55:02;1.25;;;0.50;;
21501;SDS011;27639;48.674;9.242;2023-11-21T11:57:32;3.05;;;1.13;;
21501;SDS011;27639;48.674;9.242;2023-11-21T12:02:35;1.75;;;0.77;;
21501;SDS011;27639;48.674;9.242;2023-11-21T12:05:06;2.47;;;0.80;;
21501;SDS011;27639;48.674;9.242;2023-11-21T12:07:41;1.95;;;0.80;;
21501;SDS011;27639;48.674;9.242;2023-11-21T12:10:15;2.92;;;0.70;;
21501;SDS011;27639;48.674;9.242;2023-11-21T12:12:47;1.58;;;0.68;;
21501;SDS011;27639;48.674;9.242;2023-11-21T12:15:13;2.05;;;0.90;;
21501;SDS011;27639;48.674;9.242;2023-11-21T12:17:41;3.30;;;1.20;;
21501;SDS011;27639;48.674;9.242;2023-11-21T12:20:08;3.08;;;1.67;;
21501;SDS011;27639;48.674;9.242;2023-11-21T12:22:45;3.40;;;1.80;;
21501;SDS011;27639;48.674;9.242;2023-11-21T12:25:13;3.90;;;1.60;;
21501;SDS011;27639;48.674;9.242;2023-11-21T12:27:41;3.08;;;1.40;;
21501;SDS011;27639;48.674;9.242;2023-11-21T12:30:07;2.95;;;1.10;;
21501;SDS011;27639;48.674;9.242;2023-11-21T12:32:38;3.28;;;1.15;;
21501;SDS011;27639;48.674;9.242;2023-11-21T12:35:10;3.30;;;1.10;;
21501;SDS011;27639;48.674;9.242;2023-11-21T12:37:40;2.22;;;0.90;;
21501;SDS011;27639;48.674;9.242;2023-11-21T12:40:09;2.22;;;1.05;;
21501;SDS011;27639;48.674;9.242;2023-11-21T12:42:46;2.03;;;0.90;;
21501;SDS011;27639;48.674;9.242;2023-11-21T12:47:45;2.13;;;1.00;;
21501;SDS011;27639;48.674;9.242;2023-11-21T12:50:13;2.60;;;1.20;;
21501;SDS011;27639;48.674;9.242;2023-11-21T12:52:45;2.45;;;0.90;;
21501;SDS011;27639;48.674;9.242;2023-11-21T12:55:17;1.90;;;0.90;;
21501;SDS011;27639;48.674;9.242;2023-11-21T12:57:47;2.65;;;1.00;;
21501;SDS011;27639;48.674;9.242;2023-11-21T13:00:17;2.42;;;1.08;;
21501;SDS011;27639;48.674;9.242;2023-11-21T13:02:53;2.72;;;1.20;;
21501;SDS011;27639;48.674;9.242;2023-11-21T13:05:28;3.55;;;1.70;;
21501;SDS011;27639;48.674;9.242;2023-11-21T13:08:05;3.47;;;2.05;;
21501;SDS011;27639;48.674;9.242;2023-11-21T13:10:37;3.75;;;1.98;;
21501;SDS011;27639;48.674;9.242;2023-11-21T13:13:07;2.97;;;1.25;;
21501;SDS011;27639;48.674;9.242;2023-11-21T13:15:35;3.33;;;1.60;;
21501;SDS011;27639;48.674;9.242;2023-11-21T13:18:05;4.10;;;1.60;;
21501;SDS011;27639;48.674;9.242;2023-11-21T13:20:31;3.00;;;1.40;;
21501;SDS011;27639;48.674;9.242;2023-11-21T13:22:58;3.83;;;1.80;;
21501;SDS011;27639;48.674;9.242;2023-11-21T13:25:30;5.38;;;1.88;;
21501;SDS011;27639;48.674;9.242;2023-11-21T13:27:56;3.47;;;2.00;;
21501;SDS011;27639;48.674;9.242;2023-11-21T13:30:26;3.33;;;1.80;;
21501;SDS011;27639;48.674;9.242;2023-11-21T13:32:58;3.75;;;2.10;;
21501;SDS011;27639;48.674;9.242;2023-11-21T13:35:29;5.45;;;2.55;;
21501;SDS011;27639;48.674;9.242;2023-11-21T13:37:57;4.72;;;2.80;;
21501;SDS011;27639;48.674;9.242;2023-11-21T13:40:29;4.35;;;2.95;;
21501;SDS011;27639;48.674;9.242;2023-11-21T13:42:54;4.90;;;2.80;;
21501;SDS011;27639;48.674;9.242;2023-11-21T13:45:24;4.07;;;2.00;;
21501;SDS011;27639;48.674;9.242;2023-11-21T13:47:51;4.18;;;2.50;;
21501;SDS011;27639;48.674;9.242;2023-11-21T13:50:20;5.38;;;2.33;;
21501;SDS011;27639;48.674;9.242;2023-11-21T13:52:50;4.32;;;2.05;;
21501;SDS011;27639;48.674;9.242;2023-11-21T13:55:18;4.32;;;2.20;;
21501;SDS011;27639;48.674;9.242;2023-11-21T13:57:44;3.20;;;1.58;;
21501;SDS011;27639;48.674;9.242;2023-11-21T14:00:14;3.40;;;1.85;;
21501;SDS011;27639;48.674;9.242;2023-11-21T14:03:00;2.97;;;1.58;;
21501;SDS011;27639;48.674;9.242;2023-11-21T14:05:29;2.95;;;1.52;;
21501;SDS011;27639;48.674;9.242;2023-11-21T14:07:56;2.50;;;1.35;;
21501;SDS011;27639;48.674;9.242;2023-11-21T14:10:28;3.65;;;1.60;;
21501;SDS011;27639;48.674;9.242;2023-11-21T14:13:08;3.65;;;1.90;;
21501;SDS011;27639;48.674;9.242;2023-11-21T14:15:36;2.78;;;1.33;;
21501;SDS011;27639;48.674;9.242;2023-11-21T14:18:08;3.85;;;1.70;;
21501;SDS011;27639;48.674;9.242;2023-11-21T14:20:38;3.15;;;1.30;;
21501;SDS011;27639;48.674;9.242;2023-11-21T14:23:05;2.05;;;0.80;;
21501;SDS011;27639;48.674;9.242;2023-11-21T14:25:34;1.45;;;0.60;;
21501;SDS011;27639;48.674;9.242;2023-11-21T14:28:01;1.90;;;0.75;;
21501;SDS011;27639;48.674;9.242;2023-11-21T14:30:29;1.83;;;0.60;;
21501;SDS011;27639;48.674;9.242;2023-11-21T14:32:58;2.58;;;1.00;;
21501;SDS011;27639;48.674;9.242;2023-11-21T14:35:24;4.00;;;1.90;;
21501;SDS011;27639;48.674;9.242;2023-11-21T14:37:50;3.45;;;1.77;;
21501;SDS011;27639;48.674;9.242;2023-11-21T14:40:15;2.85;;;1.13;;
21501;SDS011;27639;48.674;9.242;2023-11-21T14:42:42;2.72;;;1.00;;
21501;SDS011;27639;48.674;9.242;2023-11-21T14:45:08;3.42;;;1.10;;
21501;SDS011;27639;48.674;9.242;2023-11-21T14:47:37;3.03;;;1.50;;
21501;SDS011;27639;48.674;9.242;2023-11-21T14:50:03;3.38;;;1.40;;
21501;SDS011;27639;48.674;9.242;2023-11-21T14:52:49;2.95;;;1.23;;
21501;SDS011;27639;48.674;9.242;2023-11-21T14:55:24;2.83;;;1.40;;
21501;SDS011;27639;48.674;9.242;2023-11-21T14:57:50;3.08;;;1.65;;
21501;SDS011;27639;48.674;9.242;2023-11-21T15:00:16;3.30;;;1.73;;
21501;SDS011;27639;48.674;9.242;2023-11-21T15:02:58;4.85;;;2.13;;
21501;SDS011;27639;48.674;9.242;2023-11-21T15:05:23;3.70;;;2.30;;
21501;SDS011;27639;48.674;9.242;2023-11-21T15:07:50;3.50;;;2.13;;
21501;SDS011;27639;48.674;9.242;2023-11-21T15:10:20;4.28;;;2.15;;
21501;SDS011;27639;48.674;9.242;2023-11-21T15:12:53;3.67;;;2.20;;